createdAt,value
2023-02-23T00:01:39.680Z,13.43
2023-02-23T00:04:07.483Z,13.30
2023-02-23T00:06:36.703Z,13.98
2023-02-23T00:09:12.203Z,14.70
2023-02-23T00:11:41.094Z,13.30
2023-02-23T00:14:09.190Z,13.95
2023-02-23T00:16:37.423Z,14.77
2023-02-23T00:19:08.038Z,14.63
2023-02-23T00:21:36.128Z,15.13
2023-02-23T00:24:06.210Z,14.60
2023-02-23T00:26:35.229Z,13.27
2023-02-23T00:29:07.104Z,13.57
2023-02-23T00:31:35.055Z,14.10
2023-02-23T00:34:04.572Z,13.77
2023-02-23T00:36:34.651Z,13.55
2023-02-23T00:39:10.846Z,13.52
2023-02-23T00:41:38.723Z,14.70
2023-02-23T00:44:09.141Z,13.23
2023-02-23T00:46:36.830Z,14.55
2023-02-23T00:49:05.273Z,13.55
2023-02-23T00:51:32.899Z,14.95
2023-02-23T00:54:01.592Z,12.75
2023-02-23T00:56:29.398Z,14.32
2023-02-23T00:58:58.828Z,14.43
2023-02-23T01:01:29.215Z,14.75
2023-02-23T01:03:56.915Z,13.63
2023-02-23T01:06:24.864Z,14.48
2023-02-23T01:08:56.614Z,13.70
2023-02-23T01:11:28.012Z,14.18
2023-02-23T01:13:57.712Z,13.27
2023-02-23T01:16:30.367Z,12.93
2023-02-23T01:18:59.775Z,13.82
2023-02-23T01:21:29.663Z,14.00
2023-02-23T01:23:58.366Z,13.48
2023-02-23T01:26:28.228Z,13.95
2023-02-23T01:28:58.321Z,14.50
2023-02-23T01:31:27.105Z,13.88
2023-02-23T01:33:57.395Z,14.93
2023-02-23T01:36:25.560Z,14.25
2023-02-23T01:38:55.214Z,13.68
2023-02-23T01:41:22.891Z,14.32
2023-02-23T01:43:58.567Z,14.82
2023-02-23T01:46:26.244Z,13.77
2023-02-23T01:48:56.676Z,14.40
2023-02-23T01:51:28.598Z,13.60
2023-02-23T01:54:01.495Z,14.45
2023-02-23T01:56:33.826Z,13.68
2023-02-23T01:59:06.252Z,14.02
2023-02-23T02:01:35.699Z,14.38
2023-02-23T02:04:06.539Z,14.18
2023-02-23T02:06:36.233Z,13.63
2023-02-23T02:09:07.857Z,13.48
2023-02-23T02:11:37.141Z,13.32
2023-02-23T02:14:12.763Z,13.20
2023-02-23T02:17:11.537Z,14.57
2023-02-23T02:20:32.763Z,13.73
2023-02-23T02:23:28.378Z,14.48
2023-02-23T02:26:05.258Z,14.70
2023-02-23T02:28:48.038Z,14.13
2023-02-23T02:31:51.425Z,14.35
2023-02-23T02:35:04.916Z,14.77
2023-02-23T02:37:44.761Z,15.48
2023-02-23T02:40:23.159Z,14.18
2023-02-23T02:43:01.396Z,14.35
2023-02-23T02:45:37.334Z,14.30
2023-02-23T02:48:15.046Z,14.20
2023-02-23T02:50:47.563Z,13.35
2023-02-23T02:53:21.985Z,13.70
2023-02-23T02:55:51.459Z,13.85
2023-02-23T02:58:20.111Z,13.95
2023-02-23T03:01:07.395Z,13.18
2023-02-23T03:03:55.576Z,14.05
2023-02-23T03:06:47.566Z,14.40
2023-02-23T03:09:48.987Z,15.02
2023-02-23T03:12:44.972Z,14.75
2023-02-23T03:15:42.968Z,14.85
2023-02-23T03:18:41.051Z,14.07
2023-02-23T03:21:34.596Z,14.23
2023-02-23T03:24:29.413Z,13.88
2023-02-23T03:27:22.853Z,15.55
2023-02-23T03:30:16.787Z,13.10
2023-02-23T03:33:06.967Z,15.13
2023-02-23T03:36:01.108Z,14.25
2023-02-23T03:38:52.780Z,14.57
2023-02-23T03:41:40.225Z,14.10
2023-02-23T03:44:30.859Z,15.35
2023-02-23T03:47:18.621Z,15.88
2023-02-23T03:50:08.421Z,13.82
2023-02-23T03:53:05.019Z,15.10
2023-02-23T03:55:56.722Z,14.02
2023-02-23T03:58:46.446Z,14.77
2023-02-23T04:01:34.513Z,13.23
2023-02-23T04:04:19.802Z,15.40
2023-02-23T04:07:06.572Z,14.10
2023-02-23T04:09:51.850Z,14.50
2023-02-23T04:12:44.352Z,16.35
2023-02-23T04:15:15.419Z,14.05
2023-02-23T04:17:45.444Z,14.95
2023-02-23T04:20:14.479Z,14.27
2023-02-23T04:22:42.026Z,15.38
2023-02-23T04:25:11.814Z,15.55
2023-02-23T04:27:39.674Z,14.23
2023-02-23T04:30:11.334Z,13.75
2023-02-23T04:32:39.104Z,15.70
2023-02-23T04:35:09.071Z,15.48
2023-02-23T04:37:36.904Z,15.05
2023-02-23T04:40:04.871Z,16.05
2023-02-23T04:42:32.457Z,15.52
2023-02-23T04:45:00.253Z,14.48
2023-02-23T04:47:27.884Z,14.55
2023-02-23T04:49:55.452Z,14.50
2023-02-23T04:52:24.706Z,15.40
2023-02-23T04:54:52.351Z,14.27
2023-02-23T04:57:19.894Z,14.93
2023-02-23T04:59:47.424Z,15.07
2023-02-23T05:02:14.977Z,15.70
2023-02-23T05:04:42.764Z,15.57
2023-02-23T05:07:10.413Z,15.60
2023-02-23T05:09:41.018Z,14.82
2023-02-23T05:12:09.131Z,14.63
2023-02-23T05:14:36.793Z,15.57
2023-02-23T05:17:04.492Z,14.45
2023-02-23T05:19:32.062Z,14.13
2023-02-23T05:21:59.597Z,15.15
2023-02-23T05:24:27.278Z,16.98
2023-02-23T05:26:56.162Z,15.38
2023-02-23T05:29:24.024Z,15.75
2023-02-23T05:31:51.860Z,16.88
2023-02-23T05:34:19.470Z,18.50
2023-02-23T05:36:47.074Z,20.40
2023-02-23T05:39:14.873Z,23.42
2023-02-23T05:41:42.533Z,22.05
2023-02-23T05:44:11.548Z,20.88
2023-02-23T05:46:39.506Z,18.55
2023-02-23T05:49:07.236Z,18.17
2023-02-23T05:51:35.779Z,18.35
2023-02-23T05:54:03.462Z,17.92
2023-02-23T05:56:31.005Z,18.30
2023-02-23T05:59:00.020Z,18.05
2023-02-23T06:01:29.191Z,17.25
2023-02-23T06:03:57.241Z,18.40
2023-02-23T06:06:25.640Z,18.63
2023-02-23T06:08:53.544Z,18.02
2023-02-23T06:11:21.616Z,17.85
2023-02-23T06:13:49.852Z,18.30
2023-02-23T06:16:17.781Z,18.55
2023-02-23T06:18:46.798Z,18.55
2023-02-23T06:21:14.630Z,18.15
2023-02-23T06:23:42.260Z,18.70
2023-02-23T06:26:10.764Z,18.15
2023-02-23T06:28:38.368Z,17.58
2023-02-23T06:31:06.827Z,18.80
2023-02-23T06:33:34.800Z,21.48
2023-02-23T06:36:03.907Z,19.30
2023-02-23T06:38:31.530Z,21.20
2023-02-23T06:40:59.195Z,20.23
2023-02-23T06:43:26.798Z,20.10
2023-02-23T06:45:54.373Z,18.98
2023-02-23T06:48:22.044Z,22.65
2023-02-23T06:50:49.602Z,21.40
2023-02-23T06:53:20.186Z,22.85
2023-02-23T06:55:47.826Z,20.45
2023-02-23T06:58:15.439Z,21.48
2023-02-23T07:00:43.625Z,22.45
2023-02-23T07:03:11.695Z,22.70
2023-02-23T07:05:39.293Z,21.83
2023-02-23T07:08:07.090Z,20.52
2023-02-23T07:10:36.083Z,21.55
2023-02-23T07:13:03.713Z,20.48
2023-02-23T07:15:31.320Z,23.30
2023-02-23T07:17:58.958Z,23.52
2023-02-23T07:20:26.557Z,23.23
2023-02-23T07:22:54.776Z,21.65
2023-02-23T07:25:22.579Z,23.17
2023-02-23T07:27:51.770Z,22.85
2023-02-23T07:30:19.784Z,21.23
2023-02-23T07:32:47.450Z,23.10
2023-02-23T07:35:15.237Z,22.35
2023-02-23T07:37:43.077Z,23.80
2023-02-23T07:40:11.920Z,21.98
2023-02-23T07:42:39.703Z,22.70
2023-02-23T07:45:10.136Z,21.15
2023-02-23T07:47:39.255Z,21.42
2023-02-23T07:50:09.812Z,21.15
2023-02-23T07:52:38.618Z,22.10
2023-02-23T07:55:07.641Z,21.70
2023-02-23T07:57:35.591Z,21.75
2023-02-23T08:00:05.422Z,23.00
2023-02-23T08:02:42.001Z,22.10
2023-02-23T08:05:09.832Z,21.15
2023-02-23T08:07:37.711Z,21.58
2023-02-23T08:10:05.859Z,20.23
2023-02-23T08:12:34.291Z,21.48
2023-02-23T08:15:02.821Z,21.30
2023-02-23T08:17:30.430Z,20.50
2023-02-23T08:20:00.291Z,19.65
2023-02-23T08:22:29.374Z,19.63
2023-02-23T08:24:58.387Z,20.30
2023-02-23T08:27:26.563Z,20.10
2023-02-23T08:29:56.747Z,19.75
2023-02-23T08:32:24.396Z,19.67
2023-02-23T08:34:52.140Z,20.13
2023-02-23T08:37:21.037Z,20.73
2023-02-23T08:39:48.740Z,21.75
2023-02-23T08:42:16.420Z,21.92
2023-02-23T08:44:44.722Z,21.95
2023-02-23T08:47:12.397Z,21.38
2023-02-23T08:49:39.943Z,21.05
2023-02-23T08:52:07.601Z,21.50
2023-02-23T08:54:36.663Z,21.48
2023-02-23T08:57:04.461Z,22.02
2023-02-23T08:59:32.127Z,22.55
2023-02-23T09:01:59.745Z,22.75
2023-02-23T09:04:27.506Z,23.90
2023-02-23T09:06:55.037Z,23.35
2023-02-23T09:09:22.642Z,24.10
2023-02-23T09:11:51.597Z,26.58
2023-02-23T09:14:19.182Z,26.08
2023-02-23T09:16:47.111Z,28.95
2023-02-23T09:19:15.238Z,27.77
2023-02-23T09:21:44.744Z,28.05
2023-02-23T09:24:12.428Z,30.17
2023-02-23T09:26:44.948Z,30.25
2023-02-23T09:29:14.831Z,30.33
2023-02-23T09:31:43.602Z,29.60
2023-02-23T09:34:12.632Z,29.13
2023-02-23T09:36:40.311Z,30.58
2023-02-23T09:39:07.852Z,30.90
2023-02-23T09:42:08.562Z,31.13
2023-02-23T09:44:49.378Z,32.35
2023-02-23T09:47:42.749Z,32.78
2023-02-23T09:50:17.935Z,35.80
2023-02-23T09:52:50.029Z,36.70
2023-02-23T09:55:18.054Z,37.15
2023-02-23T09:57:48.667Z,39.13
2023-02-23T10:00:24.128Z,36.70
2023-02-23T10:03:11.557Z,38.80
2023-02-23T10:05:44.596Z,38.28
2023-02-23T10:08:24.988Z,40.08
2023-02-23T10:11:02.966Z,38.17
2023-02-23T10:13:40.026Z,37.95
2023-02-23T10:16:19.722Z,35.78
2023-02-23T10:18:56.390Z,36.80
2023-02-23T10:21:30.928Z,33.78
2023-02-23T10:24:03.104Z,36.60
2023-02-23T10:26:47.203Z,36.17
2023-02-23T10:29:22.854Z,33.10
2023-02-23T10:31:55.161Z,36.33
2023-02-23T10:34:24.645Z,32.42
2023-02-23T10:36:58.535Z,30.00
2023-02-23T10:39:26.649Z,30.85
2023-02-23T10:41:55.137Z,38.30
2023-02-23T10:44:24.483Z,34.28
2023-02-23T10:46:56.453Z,33.38
2023-02-23T10:49:30.417Z,31.52
2023-02-23T10:52:02.784Z,31.30
2023-02-23T10:54:39.765Z,33.88
2023-02-23T10:57:08.944Z,30.90
2023-02-23T10:59:36.777Z,32.15
2023-02-23T11:02:25.820Z,31.40
2023-02-23T11:04:56.783Z,30.05
2023-02-23T11:07:29.438Z,28.90
2023-02-23T11:09:57.837Z,30.85
2023-02-23T11:12:29.566Z,29.70
2023-02-23T11:14:58.468Z,28.48
2023-02-23T11:17:31.130Z,28.27
2023-02-23T11:20:02.549Z,28.60
2023-02-23T11:22:36.985Z,27.67
2023-02-23T11:25:16.555Z,26.02
2023-02-23T11:27:51.242Z,25.80
2023-02-23T11:30:21.561Z,24.95
2023-02-23T11:32:53.751Z,24.95
2023-02-23T11:35:31.437Z,23.33
2023-02-23T11:37:59.225Z,25.45
2023-02-23T11:40:28.614Z,26.70
2023-02-23T11:42:58.165Z,25.40
2023-02-23T11:45:27.915Z,25.65
2023-02-23T11:48:00.160Z,23.83
2023-02-23T11:50:30.046Z,25.67
2023-02-23T11:53:02.352Z,24.60
2023-02-23T11:55:32.027Z,22.70
2023-02-23T11:58:11.243Z,25.05
2023-02-23T12:00:39.318Z,24.75
2023-02-23T12:03:08.687Z,24.73
2023-02-23T12:05:36.492Z,24.02
2023-02-23T12:08:06.560Z,23.00
2023-02-23T12:10:40.122Z,39.65
2023-02-23T12:13:19.580Z,23.33
2023-02-23T12:15:51.398Z,23.80
2023-02-23T12:18:34.341Z,22.58
2023-02-23T12:21:21.664Z,22.33
2023-02-23T12:23:52.847Z,22.63
2023-02-23T12:26:23.750Z,24.50
2023-02-23T12:28:59.401Z,21.35
2023-02-23T12:31:31.082Z,24.73
2023-02-23T12:34:03.815Z,24.05
2023-02-23T12:36:38.474Z,22.83
2023-02-23T12:39:17.816Z,21.95
2023-02-23T12:41:49.736Z,22.50
2023-02-23T12:44:31.097Z,21.95
2023-02-23T12:47:03.543Z,22.48
2023-02-23T12:49:38.614Z,22.83
2023-02-23T12:52:14.723Z,24.33
2023-02-23T12:54:42.334Z,23.63
2023-02-23T12:57:19.391Z,22.30
2023-02-23T13:00:10.070Z,22.27
2023-02-23T13:02:47.351Z,20.83
2023-02-23T13:05:24.316Z,21.80
2023-02-23T13:08:12.963Z,21.88
2023-02-23T13:10:49.980Z,23.65
2023-02-23T13:13:26.658Z,22.90
2023-02-23T13:16:02.551Z,22.48
2023-02-23T13:18:35.573Z,22.85
2023-02-23T13:21:11.087Z,23.02
2023-02-23T13:23:47.373Z,23.70
2023-02-23T13:26:24.762Z,22.20
2023-02-23T13:28:58.621Z,21.20
2023-02-23T13:31:28.411Z,21.08
2023-02-23T13:33:58.885Z,20.50
2023-02-23T13:36:30.518Z,19.05
2023-02-23T13:39:23.551Z,20.38
2023-02-23T13:42:01.203Z,21.38
2023-02-23T13:44:35.192Z,20.67
2023-02-23T13:47:09.291Z,20.25
2023-02-23T13:49:41.877Z,19.08
2023-02-23T13:52:21.326Z,19.65
2023-02-23T13:54:58.644Z,17.13
2023-02-23T13:57:28.676Z,16.13
2023-02-23T13:59:56.633Z,18.20
2023-02-23T14:02:35.053Z,17.23
2023-02-23T14:05:05.379Z,15.48
2023-02-23T14:07:40.810Z,15.40
2023-02-23T14:10:11.472Z,15.95
2023-02-23T14:12:41.295Z,15.15
2023-02-23T14:15:41.731Z,15.07
2023-02-23T14:18:31.939Z,15.07
2023-02-23T14:21:07.562Z,13.60
2023-02-23T14:23:51.725Z,12.50
2023-02-23T14:26:40.652Z,13.65
2023-02-23T14:29:22.014Z,13.35
2023-02-23T14:31:59.241Z,13.73
2023-02-23T14:34:45.812Z,11.75
2023-02-23T14:37:19.319Z,10.85
2023-02-23T14:39:50.681Z,12.13
2023-02-23T14:42:22.678Z,11.30
2023-02-23T14:44:51.464Z,12.00
2023-02-23T14:47:21.813Z,11.27
2023-02-23T14:49:51.907Z,10.35
2023-02-23T14:52:24.513Z,10.80
2023-02-23T14:54:59.649Z,11.85
2023-02-23T14:57:27.331Z,11.15
2023-02-23T14:59:59.045Z,11.20
2023-02-23T15:02:28.917Z,11.43
2023-02-23T15:04:57.093Z,11.35
2023-02-23T15:07:32.366Z,10.40
2023-02-23T15:10:03.598Z,9.23
2023-02-23T15:12:37.812Z,11.00
2023-02-23T15:15:18.678Z,11.52
2023-02-23T15:17:48.603Z,11.55
2023-02-23T15:20:18.768Z,10.95
2023-02-23T15:22:49.629Z,11.27
2023-02-23T15:25:21.303Z,11.73
2023-02-23T15:27:49.432Z,11.10
2023-02-23T15:30:27.502Z,12.02
2023-02-23T15:33:03.499Z,10.82
2023-02-23T15:35:32.229Z,10.80
2023-02-23T15:38:14.318Z,12.30
2023-02-23T15:40:55.251Z,11.23
2023-02-23T15:43:23.392Z,11.15
2023-02-23T15:45:54.011Z,10.95
2023-02-23T15:48:24.193Z,10.80
2023-02-23T15:50:54.837Z,10.57
2023-02-23T15:53:29.946Z,12.05
2023-02-23T15:56:04.697Z,12.15
2023-02-23T15:58:44.584Z,12.00
2023-02-23T16:01:24.802Z,12.80
2023-02-23T16:04:03.634Z,12.05
2023-02-23T16:06:36.649Z,15.27
2023-02-23T16:09:24.080Z,11.68
2023-02-23T16:11:56.729Z,12.30
2023-02-23T16:14:25.741Z,11.20
2023-02-23T16:17:09.855Z,11.20
2023-02-23T16:19:41.328Z,11.13
2023-02-23T16:22:19.464Z,10.32
2023-02-23T16:24:54.452Z,9.48
2023-02-23T16:27:25.536Z,9.32
2023-02-23T16:30:00.236Z,8.90
2023-02-23T16:32:35.188Z,8.15
2023-02-23T16:35:15.222Z,9.25
2023-02-23T16:37:58.798Z,7.72
2023-02-23T16:40:26.692Z,5.88
2023-02-23T16:42:59.245Z,6.88
2023-02-23T16:45:29.454Z,6.88
2023-02-23T16:48:03.251Z,7.38
2023-02-23T16:50:33.513Z,7.25
2023-02-23T16:53:02.040Z,8.95
2023-02-23T16:55:30.459Z,8.82
2023-02-23T16:58:02.799Z,9.05
2023-02-23T17:00:32.520Z,7.15
2023-02-23T17:03:01.339Z,6.28
2023-02-23T17:05:30.149Z,6.10
2023-02-23T17:07:58.918Z,5.70
2023-02-23T17:10:29.241Z,4.72
2023-02-23T17:12:59.597Z,4.00
2023-02-23T17:15:29.418Z,3.22
2023-02-23T17:17:57.276Z,3.97
2023-02-23T17:20:26.061Z,3.90
2023-02-23T17:22:55.092Z,3.67
2023-02-23T17:25:24.260Z,3.85
2023-02-23T17:27:51.985Z,3.72
2023-02-23T17:30:21.957Z,3.30
2023-02-23T17:32:50.745Z,3.65
2023-02-23T17:35:19.094Z,3.72
2023-02-23T17:37:46.820Z,4.32
2023-02-23T17:40:16.346Z,4.18
2023-02-23T17:42:44.144Z,4.22
2023-02-23T17:45:11.993Z,3.50
2023-02-23T17:47:40.907Z,4.20
2023-02-23T17:50:09.269Z,3.08
2023-02-23T17:52:36.894Z,4.25
2023-02-23T17:55:04.868Z,3.38
2023-02-23T17:57:32.966Z,3.00
2023-02-23T18:00:00.589Z,3.22
2023-02-23T18:02:28.354Z,3.47
2023-02-23T18:04:57.476Z,4.20
2023-02-23T18:07:25.033Z,3.45
2023-02-23T18:09:52.670Z,2.80
2023-02-23T18:12:20.621Z,3.15
2023-02-23T18:14:48.217Z,4.07
2023-02-23T18:17:16.482Z,3.92
2023-02-23T18:19:46.851Z,3.17
2023-02-23T18:22:15.857Z,3.15
2023-02-23T18:24:43.462Z,3.03
2023-02-23T18:27:12.661Z,2.53
2023-02-23T18:29:40.745Z,2.42
2023-02-23T18:32:09.023Z,3.45
2023-02-23T18:34:37.536Z,4.03
2023-02-23T18:37:08.615Z,4.15
2023-02-23T18:39:37.560Z,3.92
2023-02-23T18:42:05.663Z,2.83
2023-02-23T18:44:35.155Z,2.67
2023-02-23T18:47:02.926Z,3.58
2023-02-23T18:49:30.470Z,2.70
2023-02-23T18:51:58.076Z,2.85
2023-02-23T18:54:25.973Z,3.40
2023-02-23T18:56:55.867Z,2.30
2023-02-23T18:59:23.527Z,2.42
2023-02-23T19:01:51.165Z,2.47
2023-02-23T19:04:18.694Z,2.55
2023-02-23T19:06:47.160Z,2.55
2023-02-23T19:09:19.489Z,2.40
2023-02-23T19:11:48.417Z,2.90
2023-02-23T19:14:22.076Z,3.35
2023-02-23T19:16:51.537Z,3.13
2023-02-23T19:19:19.183Z,2.75
2023-02-23T19:21:46.799Z,2.33
2023-02-23T19:24:14.358Z,2.67
2023-02-23T19:26:41.834Z,2.92
2023-02-23T19:29:09.442Z,2.75
2023-02-23T19:31:39.030Z,2.45
2023-02-23T19:34:08.784Z,2.72
2023-02-23T19:36:36.901Z,2.80
2023-02-23T19:39:12.697Z,2.78
2023-02-23T19:41:41.084Z,2.80
2023-02-23T19:44:09.137Z,2.53
2023-02-23T19:46:39.750Z,2.83
2023-02-23T19:49:07.868Z,2.67
2023-02-23T19:51:35.577Z,3.28
2023-02-23T19:54:03.347Z,2.92
2023-02-23T19:56:31.112Z,2.60
2023-02-23T19:59:02.316Z,2.60
2023-02-23T20:01:29.910Z,2.25
2023-02-23T20:04:04.314Z,2.67
2023-02-23T20:06:34.788Z,2.25
2023-02-23T20:09:05.565Z,3.10
2023-02-23T20:11:33.824Z,4.45
2023-02-23T20:14:03.243Z,2.13
2023-02-23T20:16:30.908Z,2.10
2023-02-23T20:19:00.674Z,2.28
2023-02-23T20:21:30.505Z,2.88
2023-02-23T20:23:58.252Z,2.08
2023-02-23T20:26:28.726Z,2.15
2023-02-23T20:28:58.033Z,2.25
2023-02-23T20:31:27.737Z,2.15
2023-02-23T20:33:56.234Z,2.83
2023-02-23T20:36:25.967Z,2.25
2023-02-23T20:38:53.815Z,2.38
2023-02-23T20:41:22.235Z,2.88
2023-02-23T20:43:51.533Z,2.15
2023-02-23T20:46:19.765Z,2.33
2023-02-23T20:48:49.079Z,2.60
2023-02-23T20:51:19.727Z,2.85
2023-02-23T20:53:49.833Z,2.70
2023-02-23T20:56:19.545Z,2.40
2023-02-23T20:58:47.527Z,2.80
2023-02-23T21:01:17.074Z,2.15
2023-02-23T21:03:44.745Z,3.25
2023-02-23T21:06:12.346Z,2.58
2023-02-23T21:08:42.374Z,2.30
2023-02-23T21:11:11.614Z,2.70
2023-02-23T21:13:39.282Z,2.80
2023-02-23T21:16:07.813Z,2.75
2023-02-23T21:18:35.376Z,2.90
2023-02-23T21:21:09.311Z,2.83
2023-02-23T21:23:37.514Z,2.47
2023-02-23T21:26:13.907Z,2.00
2023-02-23T21:28:44.065Z,3.50
2023-02-23T21:31:12.972Z,2.20
2023-02-23T21:33:42.498Z,3.25
2023-02-23T21:36:11.297Z,2.67
2023-02-23T21:38:39.852Z,2.95
2023-02-23T21:41:07.679Z,1.75
2023-02-23T21:43:35.904Z,1.75
2023-02-23T21:46:09.229Z,2.97
2023-02-23T21:48:36.841Z,1.90
2023-02-23T21:51:05.622Z,2.00
2023-02-23T21:53:33.236Z,2.40
2023-02-23T21:56:06.226Z,1.90
2023-02-23T21:58:34.202Z,2.05
2023-02-23T22:01:01.811Z,1.95
2023-02-23T22:03:31.195Z,1.50
2023-02-23T22:06:01.373Z,2.42
2023-02-23T22:08:28.902Z,1.63
2023-02-23T22:10:56.438Z,1.73
2023-02-23T22:13:24.089Z,1.65
2023-02-23T22:15:51.624Z,1.40
2023-02-23T22:18:19.418Z,1.10
2023-02-23T22:20:56.937Z,1.17
2023-02-23T22:23:24.565Z,0.90
2023-02-23T22:25:52.248Z,1.38
2023-02-23T22:28:19.776Z,1.10
2023-02-23T22:30:50.776Z,1.00
2023-02-23T22:33:19.900Z,0.90
2023-02-23T22:35:48.870Z,0.88
2023-02-23T22:38:19.044Z,1.20
2023-02-23T22:40:48.205Z,0.93
2023-02-23T22:43:17.092Z,0.90
2023-02-23T22:45:45.152Z,1.38
2023-02-23T22:48:14.351Z,1.45
2023-02-23T22:50:42.565Z,1.42
2023-02-23T22:53:11.844Z,1.35
2023-02-23T22:55:39.785Z,1.17
2023-02-23T22:58:10.245Z,1.63
2023-02-23T23:00:37.859Z,1.65
2023-02-23T23:03:05.884Z,1.20
2023-02-23T23:05:33.787Z,0.85
2023-02-23T23:08:01.414Z,1.50
2023-02-23T23:10:30.302Z,1.25
2023-02-23T23:12:59.174Z,1.27
2023-02-23T23:15:26.744Z,1.38
2023-02-23T23:17:54.330Z,1.60
2023-02-23T23:20:25.614Z,1.38
2023-02-23T23:22:53.374Z,1.63
2023-02-23T23:25:23.433Z,1.88
2023-02-23T23:27:55.273Z,1.15
2023-02-23T23:30:25.882Z,1.02
2023-02-23T23:32:53.650Z,0.88
2023-02-23T23:35:21.871Z,1.60
2023-02-23T23:37:50.457Z,2.33
2023-02-23T23:40:27.181Z,1.58
2023-02-23T23:42:56.240Z,1.00
2023-02-23T23:45:25.093Z,0.98
2023-02-23T23:47:52.725Z,1.27
2023-02-23T23:50:26.543Z,1.17
2023-02-23T23:52:54.446Z,1.30
2023-02-23T23:55:22.253Z,1.00
2023-02-23T23:57:49.746Z,0.80
